createdAt,value
2022-08-28T00:00:21.368Z,8.80
2022-08-28T00:00:45.397Z,9.40
2022-08-28T00:01:08.459Z,10.10
2022-08-28T00:01:31.472Z,9.75
2022-08-28T00:01:54.640Z,10.45
2022-08-28T00:02:17.557Z,10.02
2022-08-28T00:02:40.654Z,9.82
2022-08-28T00:03:06.488Z,9.73
2022-08-28T00:03:30.351Z,9.55
2022-08-28T00:03:53.335Z,10.80
2022-08-28T00:04:16.213Z,9.93
2022-08-28T00:04:39.076Z,10.23
2022-08-28T00:05:02.021Z,10.43
2022-08-28T00:05:26.227Z,9.48
2022-08-28T00:05:49.113Z,11.80
2022-08-28T00:06:12.723Z,10.32
2022-08-28T00:06:38.480Z,12.77
2022-08-28T00:07:01.516Z,10.25
2022-08-28T00:07:25.644Z,9.88
2022-08-28T00:07:48.529Z,9.68
2022-08-28T00:08:12.384Z,10.23
2022-08-28T00:08:35.721Z,10.48
2022-08-28T00:08:59.466Z,10.95
2022-08-28T00:09:22.492Z,10.85
2022-08-28T00:09:45.371Z,9.75
2022-08-28T00:10:09.679Z,11.05
2022-08-28T00:10:32.566Z,11.38
2022-08-28T00:10:57.045Z,10.55
2022-08-28T00:11:21.269Z,9.70
2022-08-28T00:11:44.173Z,11.43
2022-08-28T00:12:07.914Z,11.40
2022-08-28T00:12:31.885Z,10.00
2022-08-28T00:12:58.477Z,11.75
2022-08-28T00:13:22.626Z,10.25
2022-08-28T00:13:48.709Z,11.00
2022-08-28T00:14:11.715Z,9.82
2022-08-28T00:14:35.124Z,11.10
2022-08-28T00:14:57.909Z,10.13
2022-08-28T00:15:22.444Z,10.30
2022-08-28T00:15:45.845Z,10.07
2022-08-28T00:16:09.698Z,10.93
2022-08-28T00:16:33.768Z,11.15
2022-08-28T00:16:57.206Z,10.55
2022-08-28T00:17:20.164Z,11.85
2022-08-28T00:17:43.349Z,10.35
2022-08-28T00:18:07.187Z,9.88
2022-08-28T00:18:30.237Z,11.23
2022-08-28T00:18:53.105Z,9.95
2022-08-28T00:19:16.038Z,9.90
2022-08-28T00:19:39.003Z,10.02
2022-08-28T00:20:01.913Z,9.63
2022-08-28T00:20:25.092Z,10.70
2022-08-28T00:20:47.968Z,13.13
2022-08-28T00:21:10.848Z,10.70
2022-08-28T00:21:34.316Z,9.48
2022-08-28T00:21:57.370Z,9.65
2022-08-28T00:22:20.235Z,9.68
2022-08-28T00:22:43.103Z,9.68
2022-08-28T00:23:06.613Z,9.65
2022-08-28T00:23:38.794Z,11.55
2022-08-28T00:24:06.345Z,10.85
2022-08-28T00:24:29.301Z,10.55
2022-08-28T00:24:52.080Z,10.13
2022-08-28T00:25:19.501Z,9.10
2022-08-28T00:25:42.381Z,10.15
2022-08-28T00:26:06.840Z,10.05
2022-08-28T00:26:51.080Z,10.35
2022-08-28T00:27:33.021Z,11.68
2022-08-28T00:28:00.111Z,9.40
2022-08-28T00:28:24.488Z,11.15
2022-08-28T00:28:48.171Z,9.38
2022-08-28T00:29:11.271Z,9.20
2022-08-28T00:29:34.057Z,10.18
2022-08-28T00:29:57.047Z,9.77
2022-08-28T00:30:21.197Z,9.35
2022-08-28T00:30:48.551Z,9.20
2022-08-28T00:31:13.484Z,9.75
2022-08-28T00:31:39.780Z,9.77
2022-08-28T00:32:03.618Z,12.35
2022-08-28T00:32:27.178Z,11.60
2022-08-28T00:32:50.059Z,9.77
2022-08-28T00:33:15.601Z,10.48
2022-08-28T00:33:38.456Z,11.55
2022-08-28T00:34:03.158Z,10.55
2022-08-28T00:34:33.666Z,11.23
2022-08-28T00:34:56.826Z,10.70
2022-08-28T00:35:20.211Z,10.27
2022-08-28T00:35:43.891Z,9.65
2022-08-28T00:36:07.141Z,10.15
2022-08-28T00:36:30.628Z,8.93
2022-08-28T00:36:53.555Z,10.80
2022-08-28T00:37:16.556Z,10.27
2022-08-28T00:37:40.436Z,10.52
2022-08-28T00:38:03.460Z,9.77
2022-08-28T00:38:27.430Z,9.57
2022-08-28T00:38:50.812Z,13.32
2022-08-28T00:39:13.920Z,15.27
2022-08-28T00:39:39.260Z,10.63
2022-08-28T00:40:04.017Z,9.80
2022-08-28T00:40:28.637Z,11.15
2022-08-28T00:40:56.725Z,11.80
2022-08-28T00:41:24.997Z,13.02
2022-08-28T00:41:52.530Z,12.05
2022-08-28T00:42:20.887Z,10.98
2022-08-28T00:42:43.785Z,10.18
2022-08-28T00:43:06.765Z,11.13
2022-08-28T00:43:36.216Z,10.75
2022-08-28T00:44:11.400Z,10.77
2022-08-28T00:44:34.463Z,9.75
2022-08-28T00:44:57.269Z,9.50
2022-08-28T00:45:20.464Z,12.40
2022-08-28T00:45:43.359Z,10.93
2022-08-28T00:46:09.565Z,10.80
2022-08-28T00:46:32.733Z,10.50
2022-08-28T00:46:59.428Z,11.77
2022-08-28T00:47:26.664Z,10.02
2022-08-28T00:47:49.719Z,11.35
2022-08-28T00:48:12.832Z,10.80
2022-08-28T00:48:35.900Z,9.93
2022-08-28T00:48:58.846Z,10.02
2022-08-28T00:49:23.401Z,11.10
2022-08-28T00:49:47.915Z,10.13
2022-08-28T00:50:13.307Z,9.75
2022-08-28T00:51:00.347Z,9.38
2022-08-28T00:51:41.918Z,10.88
2022-08-28T00:52:05.993Z,9.73
2022-08-28T00:52:29.319Z,10.02
2022-08-28T00:52:55.737Z,10.93
2022-08-28T00:53:18.816Z,9.35
2022-08-28T00:53:41.921Z,10.98
2022-08-28T00:54:07.750Z,11.60
2022-08-28T00:54:34.133Z,11.65
2022-08-28T00:54:59.968Z,11.85
2022-08-28T00:55:24.252Z,11.35
2022-08-28T00:55:47.192Z,10.45
2022-08-28T00:56:13.222Z,11.50
2022-08-28T00:56:38.560Z,10.57
2022-08-28T00:57:01.525Z,11.00
2022-08-28T00:57:27.428Z,11.95
2022-08-28T00:57:52.208Z,12.25
2022-08-28T00:58:15.306Z,13.38
2022-08-28T00:58:38.364Z,10.27
2022-08-28T00:59:04.210Z,11.07
2022-08-28T00:59:27.255Z,12.15
2022-08-28T00:59:50.049Z,10.35
2022-08-28T01:00:16.849Z,10.00
2022-08-28T01:00:40.544Z,9.93
2022-08-28T01:01:03.820Z,10.82
2022-08-28T01:01:26.793Z,11.52
2022-08-28T01:01:49.844Z,12.27
2022-08-28T01:02:12.800Z,12.60
2022-08-28T01:02:35.785Z,11.32
2022-08-28T01:02:59.132Z,11.43
2022-08-28T01:03:25.140Z,11.52
2022-08-28T01:03:49.438Z,11.90
2022-08-28T01:04:16.939Z,10.10
2022-08-28T01:04:39.948Z,11.70
2022-08-28T01:05:02.918Z,12.40
2022-08-28T01:05:25.953Z,10.95
2022-08-28T01:05:49.966Z,11.25
2022-08-28T01:06:13.321Z,11.20
2022-08-28T01:06:36.417Z,10.98
2022-08-28T01:06:59.611Z,11.05
2022-08-28T01:07:23.421Z,12.20
2022-08-28T01:07:46.778Z,9.98
2022-08-28T01:08:10.328Z,10.73
2022-08-28T01:08:34.964Z,9.40
2022-08-28T01:08:59.018Z,11.90
2022-08-28T01:09:22.374Z,10.48
2022-08-28T01:09:46.316Z,12.00
2022-08-28T01:10:11.441Z,12.05
2022-08-28T01:10:35.116Z,11.05
2022-08-28T01:10:58.120Z,10.82
2022-08-28T01:11:20.933Z,9.50
2022-08-28T01:11:45.265Z,11.25
2022-08-28T01:12:10.123Z,9.98
2022-08-28T01:12:32.928Z,11.75
2022-08-28T01:12:56.541Z,11.18
2022-08-28T01:13:19.559Z,10.65
2022-08-28T01:13:44.230Z,10.25
2022-08-28T01:14:07.114Z,9.80
2022-08-28T01:14:30.586Z,11.55
2022-08-28T01:14:55.553Z,10.27
2022-08-28T01:15:20.817Z,11.80
2022-08-28T01:15:43.686Z,12.73
2022-08-28T01:16:07.030Z,13.43
2022-08-28T01:16:32.314Z,11.65
2022-08-28T01:16:57.105Z,12.68
2022-08-28T01:17:21.059Z,10.68
2022-08-28T01:17:45.409Z,9.98
2022-08-28T01:18:09.829Z,10.80
2022-08-28T01:18:33.013Z,10.65
2022-08-28T01:18:55.883Z,11.52
2022-08-28T01:19:21.338Z,10.95
2022-08-28T01:19:46.141Z,11.15
2022-08-28T01:20:11.368Z,12.80
2022-08-28T01:20:35.657Z,11.82
2022-08-28T01:21:01.916Z,11.00
2022-08-28T01:21:27.482Z,11.93
2022-08-28T01:21:53.808Z,11.05
2022-08-28T01:22:21.189Z,11.52
2022-08-28T01:22:48.388Z,11.20
2022-08-28T01:23:16.048Z,12.00
2022-08-28T01:23:53.368Z,12.43
2022-08-28T01:24:17.334Z,10.93
2022-08-28T01:24:40.391Z,11.27
2022-08-28T01:25:07.615Z,11.40
2022-08-28T01:25:32.539Z,12.52
2022-08-28T01:25:55.390Z,12.70
2022-08-28T01:26:18.389Z,12.30
2022-08-28T01:26:41.274Z,11.15
2022-08-28T01:27:04.382Z,13.93
2022-08-28T01:27:27.429Z,12.88
2022-08-28T01:27:51.879Z,11.68
2022-08-28T01:28:14.939Z,13.10
2022-08-28T01:28:38.296Z,11.23
2022-08-28T01:29:01.199Z,12.75
2022-08-28T01:29:24.144Z,12.40
2022-08-28T01:29:48.020Z,10.77
2022-08-28T01:30:12.222Z,11.13
2022-08-28T01:30:35.209Z,12.15
2022-08-28T01:30:58.044Z,10.98
2022-08-28T01:31:21.846Z,11.80
2022-08-28T01:31:44.923Z,10.95
2022-08-28T01:32:08.853Z,11.15
2022-08-28T01:32:35.223Z,11.98
2022-08-28T01:32:58.213Z,12.30
2022-08-28T01:33:28.098Z,10.95
2022-08-28T01:33:51.307Z,13.00
2022-08-28T01:34:14.373Z,11.65
2022-08-28T01:34:37.313Z,10.13
2022-08-28T01:35:00.219Z,10.52
2022-08-28T01:35:25.969Z,11.77
2022-08-28T01:35:49.019Z,12.80
2022-08-28T01:36:12.434Z,11.10
2022-08-28T01:36:35.318Z,11.85
2022-08-28T01:36:58.578Z,11.35
2022-08-28T01:37:26.338Z,11.18
2022-08-28T01:37:49.318Z,11.52
2022-08-28T01:38:12.337Z,11.68
2022-08-28T01:38:41.071Z,11.00
2022-08-28T01:39:07.663Z,10.43
2022-08-28T01:39:30.539Z,10.60
2022-08-28T01:39:54.497Z,10.40
2022-08-28T01:40:21.070Z,10.60
2022-08-28T01:40:45.973Z,10.88
2022-08-28T01:41:11.633Z,11.82
2022-08-28T01:41:35.900Z,10.35
2022-08-28T01:42:00.875Z,9.75
2022-08-28T01:42:24.262Z,10.50
2022-08-28T01:42:47.273Z,11.35
2022-08-28T01:43:12.880Z,10.35
2022-08-28T01:43:35.820Z,10.63
2022-08-28T01:43:59.598Z,10.60
2022-08-28T01:44:24.866Z,10.70
2022-08-28T01:44:47.957Z,11.52
2022-08-28T01:45:15.606Z,10.38
2022-08-28T01:45:38.781Z,9.82
2022-08-28T01:46:06.067Z,10.10
2022-08-28T01:46:29.701Z,12.43
2022-08-28T01:46:53.239Z,12.05
2022-08-28T01:47:16.215Z,11.60
2022-08-28T01:47:39.267Z,10.82
2022-08-28T01:48:02.236Z,10.93
2022-08-28T01:48:26.016Z,11.68
2022-08-28T01:48:49.484Z,10.65
2022-08-28T01:49:12.536Z,12.43
2022-08-28T01:49:35.451Z,13.73
2022-08-28T01:49:59.897Z,11.32
2022-08-28T01:50:22.673Z,14.68
2022-08-28T01:50:45.422Z,12.90
2022-08-28T01:51:08.537Z,12.38
2022-08-28T01:51:33.028Z,13.00
2022-08-28T01:51:58.621Z,12.00
2022-08-28T01:52:25.446Z,12.85
2022-08-28T01:52:49.611Z,12.57
2022-08-28T01:53:14.168Z,13.85
2022-08-28T01:53:37.713Z,12.82
2022-08-28T01:54:00.710Z,15.85
2022-08-28T01:54:26.735Z,15.55
2022-08-28T01:54:50.445Z,13.73
2022-08-28T01:55:15.885Z,14.40
2022-08-28T01:55:43.735Z,15.77
2022-08-28T01:56:08.833Z,14.40
2022-08-28T01:56:31.725Z,14.13
2022-08-28T01:56:54.727Z,13.52
2022-08-28T01:57:20.508Z,13.63
2022-08-28T01:57:46.454Z,15.77
2022-08-28T01:58:10.503Z,16.13
2022-08-28T01:58:38.483Z,14.10
2022-08-28T01:59:02.947Z,16.17
2022-08-28T01:59:25.857Z,14.70
2022-08-28T01:59:48.793Z,14.35
2022-08-28T02:00:14.028Z,14.43
2022-08-28T02:00:37.347Z,15.93
2022-08-28T02:01:00.157Z,21.13
2022-08-28T02:01:23.220Z,16.45
2022-08-28T02:01:46.179Z,15.07
2022-08-28T02:02:10.898Z,14.73
2022-08-28T02:02:33.896Z,15.32
2022-08-28T02:02:58.507Z,14.27
2022-08-28T02:03:22.136Z,16.23
2022-08-28T02:03:45.159Z,14.40
2022-08-28T02:04:08.146Z,16.50
2022-08-28T02:04:32.159Z,14.90
2022-08-28T02:04:55.344Z,15.93
2022-08-28T02:05:19.583Z,15.02
2022-08-28T02:05:42.354Z,13.68
2022-08-28T02:06:05.642Z,14.20
2022-08-28T02:06:28.559Z,14.70
2022-08-28T02:06:52.268Z,14.35
2022-08-28T02:07:17.035Z,13.98
2022-08-28T02:07:39.930Z,14.98
2022-08-28T02:08:03.609Z,15.68
2022-08-28T02:08:26.562Z,15.05
2022-08-28T02:08:51.409Z,16.65
2022-08-28T02:09:14.450Z,18.00
2022-08-28T02:09:39.409Z,15.02
2022-08-28T02:10:03.118Z,15.93
2022-08-28T02:10:26.363Z,17.38
2022-08-28T02:10:50.308Z,14.77
2022-08-28T02:11:13.504Z,13.75
2022-08-28T02:11:36.496Z,14.30
2022-08-28T02:12:04.735Z,15.77
2022-08-28T02:12:30.623Z,16.73
2022-08-28T02:12:53.491Z,15.40
2022-08-28T02:13:16.997Z,14.80
2022-08-28T02:13:40.883Z,14.13
2022-08-28T02:14:03.961Z,14.13
2022-08-28T02:14:26.873Z,15.18
2022-08-28T02:14:49.803Z,13.60
2022-08-28T02:15:13.254Z,14.77
2022-08-28T02:15:36.517Z,17.75
2022-08-28T02:15:59.564Z,16.73
2022-08-28T02:16:22.837Z,14.02
2022-08-28T02:16:48.527Z,14.30
2022-08-28T02:17:12.221Z,16.52
2022-08-28T02:17:35.187Z,14.95
2022-08-28T02:17:58.093Z,14.50
2022-08-28T02:18:21.088Z,13.93
2022-08-28T02:18:44.060Z,15.77
2022-08-28T02:19:06.886Z,13.80
2022-08-28T02:19:30.765Z,14.68
2022-08-28T02:19:53.685Z,13.90
2022-08-28T02:20:16.599Z,13.00
2022-08-28T02:20:39.454Z,15.38
2022-08-28T02:21:02.402Z,13.60
2022-08-28T02:21:25.349Z,13.10
2022-08-28T02:21:48.240Z,14.77
2022-08-28T02:22:13.690Z,14.73
2022-08-28T02:22:36.687Z,14.48
2022-08-28T02:23:02.386Z,14.35
2022-08-28T02:23:25.259Z,13.27
2022-08-28T02:23:48.090Z,14.10
2022-08-28T02:24:10.908Z,14.88
2022-08-28T02:24:33.897Z,16.73
2022-08-28T02:24:58.508Z,16.45
2022-08-28T02:25:21.673Z,16.90
2022-08-28T02:25:44.784Z,14.48
2022-08-28T02:26:07.712Z,14.25
2022-08-28T02:26:31.926Z,16.05
2022-08-28T02:26:54.817Z,13.27
2022-08-28T02:27:17.676Z,15.50
2022-08-28T02:27:40.992Z,14.23
2022-08-28T02:28:04.355Z,14.20
2022-08-28T02:28:27.258Z,13.85
2022-08-28T02:28:50.328Z,13.80
2022-08-28T02:29:13.412Z,14.60
2022-08-28T02:29:36.241Z,15.75
2022-08-28T02:29:59.609Z,14.07
2022-08-28T02:30:23.594Z,14.63
2022-08-28T02:30:47.023Z,13.07
2022-08-28T02:31:10.385Z,13.18
2022-08-28T02:31:33.637Z,15.27
2022-08-28T02:31:56.469Z,13.27
2022-08-28T02:32:20.033Z,13.35
2022-08-28T02:32:42.933Z,14.40
2022-08-28T02:33:07.508Z,14.15
2022-08-28T02:33:30.443Z,14.15
2022-08-28T02:33:53.274Z,13.60
2022-08-28T02:34:18.357Z,14.55
2022-08-28T02:34:43.762Z,13.43
2022-08-28T02:35:10.078Z,14.18
2022-08-28T02:35:35.072Z,14.35
2022-08-28T02:35:57.991Z,14.18
2022-08-28T02:36:20.857Z,15.50
2022-08-28T02:36:43.713Z,14.25
2022-08-28T02:37:09.067Z,15.05
2022-08-28T02:37:32.119Z,14.10
2022-08-28T02:37:55.576Z,14.82
2022-08-28T02:38:18.947Z,16.35
2022-08-28T02:38:42.763Z,14.18
2022-08-28T02:39:05.891Z,14.75
2022-08-28T02:39:28.932Z,14.93
2022-08-28T02:39:54.364Z,14.70
2022-08-28T02:40:20.739Z,14.60
2022-08-28T02:40:43.609Z,14.68
2022-08-28T02:41:06.679Z,14.15
2022-08-28T02:41:32.477Z,13.18
2022-08-28T02:41:55.505Z,13.15
2022-08-28T02:42:19.209Z,13.07
2022-08-28T02:42:42.644Z,13.23
2022-08-28T02:43:08.373Z,12.85
2022-08-28T02:43:31.348Z,12.93
2022-08-28T02:43:55.103Z,13.50
2022-08-28T02:44:17.825Z,13.07
2022-08-28T02:44:40.578Z,14.02
2022-08-28T02:45:03.592Z,14.23
2022-08-28T02:45:26.502Z,13.45
2022-08-28T02:45:49.681Z,14.50
2022-08-28T02:46:13.088Z,16.25
2022-08-28T02:46:36.185Z,14.20
2022-08-28T02:46:59.299Z,13.40
2022-08-28T02:47:22.229Z,13.65
2022-08-28T02:47:45.379Z,13.68
2022-08-28T02:48:11.931Z,14.23
2022-08-28T02:48:40.860Z,13.45
2022-08-28T02:49:03.730Z,13.82
2022-08-28T02:49:26.571Z,13.70
2022-08-28T02:49:59.450Z,14.00
2022-08-28T02:50:22.390Z,15.73
2022-08-28T02:50:46.294Z,16.58
2022-08-28T02:51:11.617Z,18.00
2022-08-28T02:51:35.577Z,16.50
2022-08-28T02:51:58.413Z,13.55
2022-08-28T02:52:22.713Z,14.15
2022-08-28T02:52:45.646Z,14.10
2022-08-28T02:53:08.461Z,15.18
2022-08-28T02:53:31.596Z,13.95
2022-08-28T02:53:54.501Z,14.45
2022-08-28T02:54:18.462Z,14.00
2022-08-28T02:54:46.427Z,15.18
2022-08-28T02:55:10.535Z,14.38
2022-08-28T02:55:35.030Z,17.65
2022-08-28T02:55:58.280Z,16.25
2022-08-28T02:56:21.133Z,14.27
2022-08-28T02:56:44.125Z,15.05
2022-08-28T02:57:08.361Z,14.88
2022-08-28T02:57:31.213Z,15.20
2022-08-28T02:57:54.780Z,16.17
2022-08-28T02:58:18.148Z,15.30
2022-08-28T02:58:40.934Z,14.40
2022-08-28T02:59:03.894Z,14.48
2022-08-28T02:59:26.718Z,16.25
2022-08-28T02:59:49.638Z,16.08
2022-08-28T03:00:15.634Z,15.35
2022-08-28T03:00:38.812Z,16.25
2022-08-28T03:01:01.964Z,17.02
2022-08-28T03:01:25.085Z,16.08
2022-08-28T03:01:48.778Z,17.40
2022-08-28T03:02:11.813Z,18.13
2022-08-28T03:02:34.795Z,16.23
2022-08-28T03:02:57.793Z,16.23
2022-08-28T03:03:21.225Z,17.08
2022-08-28T03:03:43.992Z,17.13
2022-08-28T03:04:06.987Z,16.88
2022-08-28T03:04:30.145Z,16.05
2022-08-28T03:04:53.047Z,15.80
2022-08-28T03:05:17.852Z,18.38
2022-08-28T03:05:40.892Z,15.93
2022-08-28T03:06:04.058Z,15.38
2022-08-28T03:06:27.058Z,14.88
2022-08-28T03:06:50.772Z,14.68
2022-08-28T03:07:13.829Z,15.00
2022-08-28T03:07:36.849Z,16.45
2022-08-28T03:07:59.663Z,15.02
2022-08-28T03:08:22.776Z,14.30
2022-08-28T03:08:50.262Z,13.73
2022-08-28T03:09:13.353Z,15.15
2022-08-28T03:09:36.313Z,15.05
2022-08-28T03:09:59.412Z,14.02
2022-08-28T03:10:22.971Z,14.40
2022-08-28T03:10:47.308Z,14.52
2022-08-28T03:11:13.268Z,14.02
2022-08-28T03:11:37.205Z,13.88
2022-08-28T03:12:00.147Z,14.18
2022-08-28T03:12:24.536Z,14.38
2022-08-28T03:12:48.547Z,14.05
2022-08-28T03:13:11.331Z,13.77
2022-08-28T03:13:48.146Z,14.55
2022-08-28T03:14:13.576Z,13.95
2022-08-28T03:14:36.684Z,14.07
2022-08-28T03:15:02.303Z,13.45
2022-08-28T03:15:25.204Z,13.38
2022-08-28T03:15:48.048Z,14.63
2022-08-28T03:16:14.874Z,13.70
2022-08-28T03:16:40.646Z,15.23
2022-08-28T03:17:03.812Z,13.65
2022-08-28T03:17:27.587Z,13.85
2022-08-28T03:17:50.608Z,14.25
2022-08-28T03:18:14.011Z,14.60
2022-08-28T03:18:37.323Z,14.48
2022-08-28T03:19:00.429Z,13.80
2022-08-28T03:19:24.744Z,13.25
2022-08-28T03:19:50.357Z,14.18
2022-08-28T03:20:13.890Z,16.02
2022-08-28T03:20:36.792Z,16.35
2022-08-28T03:21:00.120Z,14.70
2022-08-28T03:21:22.826Z,13.45
2022-08-28T03:21:45.684Z,13.43
2022-08-28T03:22:08.601Z,14.82
2022-08-28T03:22:50.142Z,13.55
2022-08-28T03:23:28.290Z,13.80
2022-08-28T03:23:51.346Z,14.70
2022-08-28T03:24:15.674Z,13.60
2022-08-28T03:24:38.777Z,13.38
2022-08-28T03:25:01.796Z,13.65
2022-08-28T03:25:25.056Z,14.57
2022-08-28T03:25:50.692Z,14.38
2022-08-28T03:26:15.780Z,16.30
2022-08-28T03:26:38.803Z,15.95
2022-08-28T03:27:01.986Z,13.93
2022-08-28T03:27:24.798Z,14.68
2022-08-28T03:27:47.967Z,12.82
2022-08-28T03:28:10.851Z,13.35
2022-08-28T03:28:34.678Z,15.05
2022-08-28T03:28:59.707Z,15.63
2022-08-28T03:29:23.445Z,14.07
2022-08-28T03:29:46.451Z,13.13
2022-08-28T03:30:10.411Z,15.20
2022-08-28T03:30:33.309Z,13.20
2022-08-28T03:30:56.342Z,13.45
2022-08-28T03:31:20.766Z,13.17
2022-08-28T03:31:46.469Z,13.30
2022-08-28T03:32:09.299Z,12.90
2022-08-28T03:32:32.244Z,12.32
2022-08-28T03:32:55.303Z,13.15
2022-08-28T03:33:18.179Z,15.02
2022-08-28T03:33:42.675Z,14.65
2022-08-28T03:34:05.754Z,13.07
2022-08-28T03:34:28.631Z,12.48
2022-08-28T03:34:54.621Z,12.63
2022-08-28T03:35:17.561Z,12.27
2022-08-28T03:35:41.032Z,13.50
2022-08-28T03:36:04.633Z,15.48
2022-08-28T03:36:28.471Z,13.07
2022-08-28T03:36:51.737Z,12.88
2022-08-28T03:37:14.502Z,12.45
2022-08-28T03:37:37.488Z,12.52
2022-08-28T03:38:00.412Z,12.13
2022-08-28T03:38:25.234Z,13.60
2022-08-28T03:38:48.692Z,13.98
2022-08-28T03:39:11.593Z,13.90
2022-08-28T03:39:34.507Z,13.18
2022-08-28T03:39:57.760Z,12.38
2022-08-28T03:40:21.703Z,14.63
2022-08-28T03:40:46.323Z,13.07
2022-08-28T03:41:12.206Z,13.50
2022-08-28T03:41:35.145Z,13.15
2022-08-28T03:41:58.135Z,12.80
2022-08-28T03:42:21.121Z,12.43
2022-08-28T03:42:44.052Z,12.65
2022-08-28T03:43:18.582Z,14.18
2022-08-28T03:43:41.416Z,13.77
2022-08-28T03:44:04.422Z,14.85
2022-08-28T03:44:27.354Z,13.55
2022-08-28T03:44:50.270Z,12.77
2022-08-28T03:45:13.225Z,12.95
2022-08-28T03:45:35.983Z,13.82
2022-08-28T03:46:00.235Z,13.73
2022-08-28T03:46:24.250Z,14.35
2022-08-28T03:46:47.263Z,12.60
2022-08-28T03:47:10.961Z,12.95
2022-08-28T03:47:35.580Z,15.63
2022-08-28T03:47:59.163Z,13.98
2022-08-28T03:48:24.543Z,13.30
2022-08-28T03:48:47.568Z,12.57
2022-08-28T03:49:10.480Z,12.35
2022-08-28T03:49:33.325Z,13.02
2022-08-28T03:49:56.681Z,13.17
2022-08-28T03:50:20.006Z,14.73
2022-08-28T03:50:43.081Z,13.80
2022-08-28T03:51:07.938Z,14.48
2022-08-28T03:51:31.982Z,14.13
2022-08-28T03:51:54.847Z,12.90
2022-08-28T03:52:17.692Z,13.15
2022-08-28T03:52:41.170Z,14.40
2022-08-28T03:53:04.474Z,13.48
2022-08-28T03:53:29.209Z,13.68
2022-08-28T03:53:52.914Z,12.75
2022-08-28T03:54:15.875Z,12.48
2022-08-28T03:54:38.803Z,13.63
2022-08-28T03:55:03.436Z,12.15
2022-08-28T03:55:26.955Z,13.75
2022-08-28T03:55:49.748Z,15.32
2022-08-28T03:56:19.132Z,12.82
2022-08-28T03:56:42.454Z,12.70
2022-08-28T03:57:05.659Z,13.70
2022-08-28T03:57:28.630Z,13.82
2022-08-28T03:57:51.928Z,12.35
2022-08-28T03:58:19.118Z,14.35
2022-08-28T03:58:42.324Z,12.40
2022-08-28T03:59:05.761Z,12.20
2022-08-28T03:59:31.700Z,13.68
2022-08-28T03:59:56.693Z,12.90
2022-08-28T04:00:20.605Z,12.80
2022-08-28T04:00:43.491Z,13.75
2022-08-28T04:01:08.483Z,16.23
2022-08-28T04:01:33.818Z,17.02
2022-08-28T04:01:57.011Z,15.35
2022-08-28T04:02:20.721Z,14.68
2022-08-28T04:02:44.014Z,15.15
2022-08-28T04:03:07.156Z,16.27
2022-08-28T04:03:30.342Z,18.58
2022-08-28T04:03:53.264Z,20.20
2022-08-28T04:04:16.094Z,23.60
2022-08-28T04:04:39.603Z,25.20
2022-08-28T04:05:02.487Z,30.70
2022-08-28T04:05:25.412Z,35.47
2022-08-28T04:05:48.330Z,47.25
2022-08-28T04:06:11.340Z,62.70
2022-08-28T04:06:34.253Z,63.13
2022-08-28T04:06:59.633Z,56.17
2022-08-28T04:07:22.777Z,64.78
2022-08-28T04:07:45.852Z,83.85
2022-08-28T04:08:09.300Z,92.05
2022-08-28T04:08:32.221Z,87.32
2022-08-28T04:08:55.594Z,99.57
2022-08-28T04:09:23.297Z,51.45
2022-08-28T04:09:46.308Z,52.83
2022-08-28T04:10:10.253Z,55.00
2022-08-28T04:10:33.234Z,44.05
2022-08-28T04:10:56.098Z,42.25
2022-08-28T04:11:20.867Z,46.10
2022-08-28T04:11:44.253Z,44.33
2022-08-28T04:12:08.611Z,73.13
2022-08-28T04:12:35.350Z,78.75
2022-08-28T04:12:58.434Z,56.42
2022-08-28T04:13:21.693Z,53.20
2022-08-28T04:13:44.621Z,71.55
2022-08-28T04:14:08.133Z,73.22
2022-08-28T04:14:31.010Z,60.13
2022-08-28T04:14:54.642Z,70.00
2022-08-28T04:15:17.911Z,70.85
2022-08-28T04:15:41.739Z,79.07
2022-08-28T04:16:10.991Z,51.70
2022-08-28T04:16:37.035Z,68.85
2022-08-28T04:17:01.601Z,60.05
2022-08-28T04:17:25.677Z,85.78
2022-08-28T04:17:48.678Z,66.07
2022-08-28T04:18:11.608Z,77.97
2022-08-28T04:18:35.740Z,87.35
2022-08-28T04:18:58.637Z,87.65
2022-08-28T04:19:21.840Z,85.73
2022-08-28T04:19:45.566Z,80.63
2022-08-28T04:20:11.090Z,75.18
2022-08-28T04:20:38.886Z,71.47
2022-08-28T04:21:02.643Z,97.90
2022-08-28T04:21:26.333Z,106.18
2022-08-28T04:21:49.533Z,96.30
2022-08-28T04:22:12.484Z,80.90
2022-08-28T04:22:37.376Z,55.75
2022-08-28T04:23:03.585Z,56.88
2022-08-28T04:23:26.910Z,66.75
2022-08-28T04:23:49.853Z,78.00
2022-08-28T04:24:13.374Z,113.00
2022-08-28T04:24:37.866Z,103.97
2022-08-28T04:25:01.022Z,47.53
2022-08-28T04:25:24.249Z,75.72
2022-08-28T04:25:48.543Z,131.98
2022-08-28T04:26:12.286Z,85.30
2022-08-28T04:26:37.119Z,89.68
2022-08-28T04:27:00.049Z,108.95
2022-08-28T04:27:22.968Z,142.07
2022-08-28T04:27:45.889Z,64.47
2022-08-28T04:28:08.854Z,47.72
2022-08-28T04:28:32.861Z,71.20
2022-08-28T04:28:56.033Z,92.13
2022-08-28T04:29:19.386Z,74.63
2022-08-28T04:29:42.284Z,100.20
2022-08-28T04:30:06.888Z,140.30
2022-08-28T04:30:32.888Z,113.45
2022-08-28T04:30:55.868Z,112.18
2022-08-28T04:31:18.897Z,85.97
2022-08-28T04:31:55.159Z,100.18
2022-08-28T04:32:18.333Z,77.78
2022-08-28T04:32:41.213Z,90.90
2022-08-28T04:33:06.328Z,88.80
2022-08-28T04:33:29.378Z,86.85
2022-08-28T04:33:52.265Z,88.70
2022-08-28T04:34:15.121Z,108.40
2022-08-28T04:34:38.620Z,84.72
2022-08-28T04:35:01.416Z,60.00
2022-08-28T04:35:24.712Z,78.82
2022-08-28T04:35:47.616Z,72.50
2022-08-28T04:36:12.256Z,74.90
2022-08-28T04:36:35.755Z,62.88
2022-08-28T04:36:59.111Z,88.47
2022-08-28T04:37:22.932Z,63.75
2022-08-28T04:37:51.102Z,36.40
2022-08-28T04:38:14.139Z,38.15
2022-08-28T04:38:41.591Z,91.65
2022-08-28T04:39:08.781Z,90.47
2022-08-28T04:39:31.959Z,63.63
2022-08-28T04:39:57.348Z,78.88
2022-08-28T04:40:20.289Z,43.53
2022-08-28T04:40:43.405Z,65.95
2022-08-28T04:41:06.791Z,46.47
2022-08-28T04:41:30.170Z,84.70
2022-08-28T04:41:57.179Z,52.35
2022-08-28T04:42:20.149Z,39.40
2022-08-28T04:42:45.221Z,62.08
2022-08-28T04:43:08.284Z,47.20
2022-08-28T04:43:31.252Z,35.85
2022-08-28T04:43:56.693Z,43.30
2022-08-28T04:44:22.313Z,35.80
2022-08-28T04:44:45.209Z,37.53
2022-08-28T04:45:08.701Z,34.50
2022-08-28T04:45:31.667Z,35.53
2022-08-28T04:45:54.595Z,44.53
2022-08-28T04:46:17.525Z,46.55
2022-08-28T04:46:40.776Z,61.47
2022-08-28T04:47:03.668Z,60.17
2022-08-28T04:47:29.657Z,73.68
2022-08-28T04:47:53.257Z,120.55
2022-08-28T04:48:19.287Z,56.17
2022-08-28T04:48:42.514Z,39.08
2022-08-28T04:49:06.125Z,39.60
2022-08-28T04:49:29.190Z,52.30
2022-08-28T04:49:52.185Z,59.60
2022-08-28T04:50:14.941Z,55.30
2022-08-28T04:50:41.165Z,40.85
2022-08-28T04:51:05.832Z,40.38
2022-08-28T04:51:28.732Z,32.78
2022-08-28T04:51:51.671Z,37.00
2022-08-28T04:52:14.795Z,39.53
2022-08-28T04:52:37.694Z,45.17
2022-08-28T04:53:00.544Z,39.97
2022-08-28T04:53:25.964Z,41.40
2022-08-28T04:53:48.739Z,48.67
2022-08-28T04:54:11.798Z,50.90
2022-08-28T04:54:34.782Z,46.45
2022-08-28T04:54:58.013Z,38.63
2022-08-28T04:55:27.862Z,34.65
2022-08-28T04:56:07.271Z,52.08
2022-08-28T04:56:30.187Z,84.85
2022-08-28T04:56:53.072Z,91.18
2022-08-28T04:57:17.848Z,86.70
2022-08-28T04:57:40.738Z,47.33
2022-08-28T04:58:03.730Z,35.97
2022-08-28T04:58:26.623Z,33.50
2022-08-28T04:58:49.851Z,37.63
2022-08-28T04:59:13.011Z,33.65
2022-08-28T04:59:35.891Z,36.30
2022-08-28T04:59:58.966Z,33.80
2022-08-28T05:00:23.941Z,29.30
2022-08-28T05:00:47.824Z,39.72
2022-08-28T05:01:15.633Z,35.08
2022-08-28T05:01:40.049Z,33.25
2022-08-28T05:02:03.000Z,34.60
2022-08-28T05:02:26.883Z,34.40
2022-08-28T05:02:50.340Z,41.80
2022-08-28T05:03:13.340Z,30.17
2022-08-28T05:03:36.375Z,32.55
2022-08-28T05:04:00.426Z,31.63
2022-08-28T05:04:23.460Z,31.02
2022-08-28T05:04:47.005Z,33.58
2022-08-28T05:05:11.905Z,33.25
2022-08-28T05:05:35.240Z,31.73
2022-08-28T05:05:58.160Z,37.25
2022-08-28T05:06:23.271Z,32.35
2022-08-28T05:06:46.720Z,35.25
2022-08-28T05:07:09.647Z,32.00
2022-08-28T05:07:35.246Z,26.92
2022-08-28T05:07:58.166Z,28.08
2022-08-28T05:08:23.760Z,26.45
2022-08-28T05:08:46.715Z,26.50
2022-08-28T05:09:14.694Z,25.67
2022-08-28T05:09:38.209Z,25.33
2022-08-28T05:10:00.912Z,25.02
2022-08-28T05:10:24.079Z,28.58
2022-08-28T05:10:47.284Z,26.00
2022-08-28T05:11:11.254Z,27.67
2022-08-28T05:11:35.206Z,29.27